Rechercher aéroport 
image banner adimage banner adimage banner ad
image banner ad

KPAO - Palo Alto

Situé à Palo Alto, United States

ICAO - PAO, IATA - PAO

Données fournies par Airmate  

Information générale

Coordonnées: N37°27'40" W122°6'54"
Élévation : 7 feet MSL.
Variation magnétique : 15° East
Voir autres Aéroports à California

Données opérationnelles

Special qualification required
Heure actuelle UTC:
Heure actuelle locale:
Météo
METAR: KPAO 300147Z 33008KT 10SM SKC 22/15 A2989
Voir NOTAMs / SUP AIP / TFR affectant cet aéroport [VIEW]
Fréquences de communication: [VIEW]

Pistes:

Identifiant RWYQFULongueur (ft)Largeur (ft)SurfaceLDA (ft)
13142°244370ASPH
31322°244370ASPH

Coordonnées de l'aéroport

Adresse: Palo Alto United States

Autres services d'aviation

Écoles de pilotage

Advantage Aviation Inc.

Advantage Aviation Inc.

Sundance Flying Club, Inc

Sundance Flying Club, Inc
infosundance@yahoo.com+1(650)494-7768

West Valley Flying Club

West Valley Flying Club
mst@wvfc.org+1(650)856-2030

Stanford Flying Club

Stanford Flying Club

Advanced Flyers

Advanced Flyers

Max G Aviation

Max G Aviation
info@maxgaviation.com+1(650)248-2065

Jato Aviation

Jato Aviation
ops@jatoaviation.com+1(650)654-5286

Vue satellite de KPAO